Flight Briefing for CPX105

Departure Arrival
Huntsville International Airport (KHSV)
Click to view FAA NOTAMS
Miami International Airport (KMIA)
Click to view FAA NOTAMS
Departure Time Arrival Time
N/A N/A
Aircraft Distance
B747-400BCF 629nm
Departure METAR Arrival METAR
KHSV 260953Z AUTO 02012KT 10SM OVC020 09/05 A3015 RMK AO2 SLP208 T00940050 KMIA 260953Z 29003KT 10SM FEW020 21/17 A3000 RMK AO2 SLP160 T02060172
Suggested Route
RMG ATL YANTI Q89 PRMUS OMN HILEY7


View recent IFR Routes data
Notes



Charts and Procedures

Charts for KHSV
No chart available
Charts for KMIA
No chart available

Windy.com Weather Map